createdAt,value
2022-09-04T00:02:21.730Z,101348.75
2022-09-04T00:04:52.273Z,101348.88
2022-09-04T00:07:27.103Z,101355.94
2022-09-04T00:10:16.145Z,101351.69
2022-09-04T00:13:09.782Z,101362.28
2022-09-04T00:15:44.786Z,101347.47
2022-09-04T00:18:30.401Z,101364.94
2022-09-04T00:21:15.751Z,101363.41
2022-09-04T00:23:52.810Z,101369.63
2022-09-04T00:26:36.945Z,101374.94
2022-09-04T00:29:13.563Z,101371.38
2022-09-04T00:31:48.282Z,101376.56
2022-09-04T00:34:32.461Z,101369.66
2022-09-04T00:37:06.501Z,101368.81
2022-09-04T00:39:45.090Z,101367.09
2022-09-04T00:42:35.867Z,101377.59
2022-09-04T00:45:41.267Z,101384.69
2022-09-04T00:48:25.220Z,101391.56
2022-09-04T00:51:16.037Z,101382.88
2022-09-04T00:53:52.563Z,101377.63
2022-09-04T00:56:53.912Z,101382.00
2022-09-04T00:59:56.123Z,101391.56
2022-09-04T01:02:50.830Z,101382.00
2022-09-04T01:05:45.894Z,101389.09
2022-09-04T01:08:35.604Z,101390.91
2022-09-04T01:11:27.564Z,101391.81
2022-09-04T01:14:10.855Z,101397.09
2022-09-04T01:16:53.570Z,101393.53
2022-09-04T01:19:35.783Z,101402.34
2022-09-04T01:22:21.512Z,101415.50
2022-09-04T01:25:18.974Z,101411.09
2022-09-04T01:28:08.501Z,101408.44
2022-09-04T01:30:47.010Z,101414.56
2022-09-04T01:33:37.354Z,101412.84
2022-09-04T01:36:27.948Z,101407.59
2022-09-04T01:38:59.036Z,101411.19
2022-09-04T01:41:39.460Z,101409.56
2022-09-04T01:44:09.943Z,101416.53
2022-09-04T01:46:50.169Z,101413.06
2022-09-04T01:49:37.428Z,101418.41
2022-09-04T01:52:26.596Z,101418.41
2022-09-04T01:55:00.788Z,101423.72
2022-09-04T01:57:59.148Z,101424.69
2022-09-04T02:00:33.921Z,101417.78
2022-09-04T02:03:22.403Z,101434.41
2022-09-04T02:06:09.415Z,101432.66
2022-09-04T02:08:44.622Z,101434.47
2022-09-04T02:11:20.605Z,101427.56
2022-09-04T02:14:17.814Z,101437.31
2022-09-04T02:17:04.032Z,101446.34
2022-09-04T02:19:52.970Z,101438.34
2022-09-04T02:22:29.259Z,101439.22
2022-09-04T02:25:11.032Z,101445.53
2022-09-04T02:27:59.556Z,101442.06
2022-09-04T02:30:33.210Z,101439.50
2022-09-04T02:33:21.222Z,101438.72
2022-09-04T02:36:06.208Z,101445.84
2022-09-04T02:38:52.618Z,101451.13
2022-09-04T02:41:42.748Z,101453.78
2022-09-04T02:44:17.051Z,101463.44
2022-09-04T02:47:07.857Z,101462.59
2022-09-04T02:49:55.360Z,101469.59
2022-09-04T02:52:47.549Z,101470.50
2022-09-04T02:55:45.422Z,101466.13
2022-09-04T02:58:39.692Z,101466.22
2022-09-04T03:01:31.404Z,101465.34
2022-09-04T03:04:13.812Z,101464.56
2022-09-04T03:06:44.477Z,101464.44
2022-09-04T03:09:20.061Z,101468.94
2022-09-04T03:12:14.857Z,101467.22
2022-09-04T03:15:00.200Z,101461.22
2022-09-04T03:17:44.411Z,101474.34
2022-09-04T03:20:25.303Z,101484.84
2022-09-04T03:22:59.688Z,101486.63
2022-09-04T03:25:40.565Z,101483.09
2022-09-04T03:28:13.644Z,101484.84
2022-09-04T03:30:42.511Z,101473.47
2022-09-04T03:33:27.466Z,101481.34
2022-09-04T03:36:08.158Z,101481.38
2022-09-04T03:38:43.738Z,101490.16
2022-09-04T03:41:30.229Z,101479.66
2022-09-04T03:44:00.509Z,101490.19
2022-09-04T03:46:49.276Z,101491.09
2022-09-04T03:49:34.274Z,101491.13
2022-09-04T03:52:11.154Z,101491.91
2022-09-04T03:54:55.023Z,101493.72
2022-09-04T03:57:52.869Z,101504.28
2022-09-04T04:00:22.605Z,101500.84
2022-09-04T04:02:59.321Z,101508.72
2022-09-04T04:05:37.961Z,101515.78
2022-09-04T04:08:27.704Z,101509.72
2022-09-04T04:11:01.174Z,101517.59
2022-09-04T04:13:53.353Z,101520.22
2022-09-04T04:16:40.611Z,101531.69
2022-09-04T04:19:46.986Z,101530.84
2022-09-04T04:22:29.746Z,101539.63
2022-09-04T04:25:16.445Z,101539.66
2022-09-04T04:28:09.197Z,101537.94
2022-09-04T04:30:52.572Z,101540.63
2022-09-04T04:33:42.404Z,101543.22
2022-09-04T04:36:45.610Z,101541.50
2022-09-04T04:39:32.590Z,101546.81
2022-09-04T04:42:12.253Z,101559.94
2022-09-04T04:45:23.338Z,101558.22
2022-09-04T04:48:12.428Z,101553.91
2022-09-04T04:50:47.685Z,101553.91
2022-09-04T04:53:25.956Z,101566.19
2022-09-04T04:56:32.914Z,101556.56
2022-09-04T04:59:20.693Z,101555.75
2022-09-04T05:01:56.202Z,101561.00
2022-09-04T05:04:31.705Z,101566.25
2022-09-04T05:07:22.215Z,101566.28
2022-09-04T05:10:07.080Z,101575.00
2022-09-04T05:13:03.478Z,101572.34
2022-09-04T05:16:08.415Z,101576.75
2022-09-04T05:18:48.682Z,101578.50
2022-09-04T05:21:43.477Z,101586.34
2022-09-04T05:24:38.690Z,101582.81
2022-09-04T05:27:31.029Z,101590.75
2022-09-04T05:30:13.007Z,101602.06
2022-09-04T05:32:54.832Z,101598.56
2022-09-04T05:35:36.377Z,101601.16
2022-09-04T05:38:36.729Z,101612.47
2022-09-04T05:41:15.458Z,101606.34
2022-09-04T05:44:07.014Z,101604.53
2022-09-04T05:46:52.297Z,101611.47
2022-09-04T05:49:44.464Z,101615.84
2022-09-04T05:52:42.410Z,101617.44
2022-09-04T05:55:32.892Z,101618.25
2022-09-04T05:58:34.390Z,101628.66
2022-09-04T06:01:15.558Z,101635.44
2022-09-04T06:03:43.782Z,101637.13
2022-09-04T06:06:15.198Z,101635.22
2022-09-04T06:08:56.813Z,101641.25
2022-09-04T06:11:42.777Z,101638.56
2022-09-04T06:14:31.484Z,101638.38
2022-09-04T06:17:28.906Z,101636.63
2022-09-04T06:19:59.100Z,101641.69
2022-09-04T06:22:40.729Z,101646.94
2022-09-04T06:25:25.560Z,101650.16
2022-09-04T06:28:31.382Z,101644.72
2022-09-04T06:31:20.138Z,101644.66
2022-09-04T06:34:00.882Z,101649.72
2022-09-04T06:36:42.656Z,101650.53
2022-09-04T06:39:31.606Z,101652.97
2022-09-04T06:42:17.367Z,101652.75
2022-09-04T06:44:44.802Z,101657.06
2022-09-04T06:47:27.399Z,101659.47
2022-09-04T06:50:30.212Z,101654.88
2022-09-04T06:53:04.151Z,101658.13
2022-09-04T06:55:45.791Z,101656.16
2022-09-04T06:58:27.993Z,101653.06
2022-09-04T07:01:21.624Z,101657.03
2022-09-04T07:03:56.707Z,101658.31
2022-09-04T07:06:48.645Z,101657.34
2022-09-04T07:09:28.150Z,101663.22
2022-09-04T07:12:33.585Z,101671.75
2022-09-04T07:15:40.308Z,101664.72
2022-09-04T07:18:34.866Z,101668.72
2022-09-04T07:21:15.389Z,101671.75
2022-09-04T07:23:48.810Z,101669.69
2022-09-04T07:26:33.406Z,101662.91
2022-09-04T07:29:25.748Z,101662.34
2022-09-04T07:32:18.812Z,101673.75
2022-09-04T07:34:56.349Z,101669.59
2022-09-04T07:37:58.424Z,101660.47
2022-09-04T07:40:40.486Z,101678.31
2022-09-04T07:43:16.020Z,101663.34
2022-09-04T07:45:47.565Z,101680.59
2022-09-04T07:48:33.348Z,101681.66
2022-09-04T07:51:10.212Z,101692.03
2022-09-04T07:54:11.518Z,101684.31
2022-09-04T07:57:05.929Z,101676.03
2022-09-04T07:59:59.088Z,101686.28
2022-09-04T08:02:58.533Z,101678.84
2022-09-04T08:05:53.066Z,101698.53
2022-09-04T08:08:53.238Z,101685.97
2022-09-04T08:11:49.938Z,101696.50
2022-09-04T08:14:32.448Z,101690.06
2022-09-04T08:17:25.252Z,101701.34
2022-09-04T08:20:04.622Z,101704.53
2022-09-04T08:22:34.875Z,101702.41
2022-09-04T08:25:30.803Z,101708.22
2022-09-04T08:28:01.177Z,101713.16
2022-09-04T08:30:36.801Z,101709.81
2022-09-04T08:33:44.991Z,101712.25
2022-09-04T08:36:32.606Z,101703.81
2022-09-04T08:39:07.160Z,101716.16
2022-09-04T08:41:57.993Z,101715.75
2022-09-04T08:44:36.379Z,101718.66
2022-09-04T08:47:24.095Z,101726.22
2022-09-04T08:50:16.970Z,101724.38
2022-09-04T08:53:06.075Z,101722.31
2022-09-04T08:56:10.105Z,101712.50
2022-09-04T08:59:07.270Z,101719.81
2022-09-04T09:02:19.423Z,101722.28
2022-09-04T09:05:01.883Z,101724.16
2022-09-04T09:08:00.391Z,101725.97
2022-09-04T09:10:55.423Z,101735.50
2022-09-04T09:13:22.859Z,101733.22
2022-09-04T09:16:14.110Z,101724.81
2022-09-04T09:19:09.009Z,101723.94
2022-09-04T09:21:49.325Z,101732.59
2022-09-04T09:24:25.905Z,101720.44
2022-09-04T09:27:11.757Z,101721.56
2022-09-04T09:29:51.906Z,101729.09
2022-09-04T09:32:52.184Z,101724.34
2022-09-04T09:35:55.693Z,101721.84
2022-09-04T09:39:00.406Z,101726.53
2022-09-04T09:42:00.840Z,101722.97
2022-09-04T09:44:49.686Z,101722.84
2022-09-04T09:47:54.644Z,101722.28
2022-09-04T09:50:47.812Z,101721.59
2022-09-04T09:53:28.945Z,101711.97
2022-09-04T09:56:17.126Z,101725.88
2022-09-04T09:59:12.442Z,101728.13
2022-09-04T10:02:20.078Z,101728.69
2022-09-04T10:05:26.117Z,101713.03
2022-09-04T10:08:05.607Z,101729.59
2022-09-04T10:11:12.026Z,101732.13
2022-09-04T10:13:58.924Z,101725.94
2022-09-04T10:16:58.206Z,101718.44
2022-09-04T10:20:08.789Z,101724.44
2022-09-04T10:22:43.104Z,101724.53
2022-09-04T10:25:37.700Z,101725.81
2022-09-04T10:28:47.451Z,101716.84
2022-09-04T10:31:45.642Z,101722.03
2022-09-04T10:34:48.406Z,101728.69
2022-09-04T10:38:09.738Z,101727.09
2022-09-04T10:40:51.309Z,101728.38
2022-09-04T10:43:39.405Z,101726.03
2022-09-04T10:46:25.222Z,101719.91
2022-09-04T10:49:39.030Z,101724.66
2022-09-04T10:52:33.189Z,101730.41
2022-09-04T10:55:17.634Z,101731.00
2022-09-04T10:57:53.512Z,101732.47
2022-09-04T11:00:23.744Z,101727.47
2022-09-04T11:03:22.103Z,101729.78
2022-09-04T11:06:15.803Z,101726.97
2022-09-04T11:09:01.723Z,101731.28
2022-09-04T11:12:09.437Z,101731.97
2022-09-04T11:14:57.161Z,101727.22
2022-09-04T11:17:46.129Z,101732.59
2022-09-04T11:20:36.414Z,101729.44
2022-09-04T11:23:25.520Z,101728.94
2022-09-04T11:26:08.285Z,101729.66
2022-09-04T11:28:57.101Z,101737.97
2022-09-04T11:31:44.733Z,101728.19
2022-09-04T11:34:36.856Z,101719.16
2022-09-04T11:37:43.491Z,101723.13
2022-09-04T11:40:35.739Z,101730.16
2022-09-04T11:43:23.606Z,101723.72
2022-09-04T11:46:00.584Z,101725.97
2022-09-04T11:48:53.571Z,101715.03
2022-09-04T11:51:48.930Z,101722.63
2022-09-04T11:54:35.068Z,101716.88
2022-09-04T11:57:12.419Z,101720.47
2022-09-04T11:59:59.032Z,101724.50
2022-09-04T12:02:38.601Z,101724.50
2022-09-04T12:05:40.410Z,101725.81
2022-09-04T12:08:21.309Z,101722.47
2022-09-04T12:11:11.911Z,101729.03
2022-09-04T12:14:02.035Z,101725.16
2022-09-04T12:16:44.273Z,101737.69
2022-09-04T12:19:16.136Z,101735.38
2022-09-04T12:22:36.458Z,101734.38
2022-09-04T12:25:19.284Z,101738.69
2022-09-04T12:27:49.722Z,101745.53
2022-09-04T12:30:55.403Z,101731.28
2022-09-04T12:34:03.466Z,101734.91
2022-09-04T12:36:59.339Z,101731.28
2022-09-04T12:39:49.256Z,101734.97
2022-09-04T12:42:25.598Z,101729.44
2022-09-04T12:45:09.963Z,101743.22
2022-09-04T12:47:41.658Z,101734.00
2022-09-04T12:50:35.562Z,101743.09
2022-09-04T12:53:14.996Z,101740.94
2022-09-04T12:56:00.610Z,101736.72
2022-09-04T12:58:47.894Z,101746.66
2022-09-04T13:01:21.376Z,101748.00
2022-09-04T13:03:59.841Z,101742.88
2022-09-04T13:06:48.222Z,101747.59
2022-09-04T13:09:33.555Z,101744.16
2022-09-04T13:12:14.086Z,101748.72
2022-09-04T13:14:57.547Z,101744.81
2022-09-04T13:17:43.478Z,101748.38
2022-09-04T13:20:24.435Z,101749.06
2022-09-04T13:23:04.503Z,101744.44
2022-09-04T13:25:55.130Z,101748.59
2022-09-04T13:28:50.846Z,101756.19
2022-09-04T13:31:21.379Z,101751.41
2022-09-04T13:34:07.655Z,101752.63
2022-09-04T13:36:46.228Z,101755.91
2022-09-04T13:39:36.059Z,101747.38
2022-09-04T13:42:12.381Z,101754.59
2022-09-04T13:45:00.226Z,101754.44
2022-09-04T13:47:43.317Z,101750.81
2022-09-04T13:50:22.489Z,101750.16
2022-09-04T13:53:22.974Z,101754.34
2022-09-04T13:55:54.560Z,101749.59
2022-09-04T13:58:26.065Z,101750.94
2022-09-04T14:00:59.320Z,101749.84
2022-09-04T14:03:39.786Z,101747.88
2022-09-04T14:06:12.922Z,101747.72
2022-09-04T14:08:43.181Z,101741.56
2022-09-04T14:11:32.184Z,101747.63
2022-09-04T14:14:41.335Z,101752.91
2022-09-04T14:17:10.437Z,101747.47
2022-09-04T14:20:19.441Z,101750.22
2022-09-04T14:23:11.553Z,101752.47
2022-09-04T14:26:00.801Z,101749.91
2022-09-04T14:28:40.441Z,101745.84
2022-09-04T14:31:22.685Z,101744.13
2022-09-04T14:34:27.780Z,101744.34
2022-09-04T14:37:10.351Z,101745.38
2022-09-04T14:39:48.951Z,101742.59
2022-09-04T14:42:42.535Z,101746.91
2022-09-04T14:45:30.817Z,101749.50
2022-09-04T14:48:05.310Z,101750.97
2022-09-04T14:50:45.522Z,101746.06
2022-09-04T14:53:22.512Z,101745.31
2022-09-04T14:56:13.203Z,101737.28
2022-09-04T14:58:50.140Z,101743.91
2022-09-04T15:01:21.088Z,101749.06
2022-09-04T15:04:13.054Z,101750.66
2022-09-04T15:07:10.316Z,101746.06
2022-09-04T15:09:42.023Z,101735.16
2022-09-04T15:12:24.767Z,101737.47
2022-09-04T15:15:31.602Z,101735.56
2022-09-04T15:18:15.895Z,101731.72
2022-09-04T15:20:57.181Z,101742.94
2022-09-04T15:23:46.819Z,101731.25
2022-09-04T15:26:37.608Z,101736.53
2022-09-04T15:29:27.246Z,101733.09
2022-09-04T15:32:05.071Z,101724.66
2022-09-04T15:34:38.146Z,101721.25
2022-09-04T15:37:19.921Z,101733.53
2022-09-04T15:40:13.725Z,101732.56
2022-09-04T15:42:47.436Z,101729.97
2022-09-04T15:45:24.148Z,101724.38
2022-09-04T15:48:03.574Z,101733.38
2022-09-04T15:50:36.409Z,101741.28
2022-09-04T15:53:27.242Z,101741.28
2022-09-04T15:56:09.288Z,101735.53
2022-09-04T15:58:47.194Z,101734.25
2022-09-04T16:01:20.172Z,101734.16
2022-09-04T16:04:30.119Z,101735.25
2022-09-04T16:07:23.856Z,101729.53
2022-09-04T16:10:00.158Z,101736.53
2022-09-04T16:12:33.455Z,101730.03
2022-09-04T16:15:17.402Z,101736.28
2022-09-04T16:17:54.516Z,101730.81
2022-09-04T16:20:35.398Z,101728.25
2022-09-04T16:23:08.651Z,101720.03
2022-09-04T16:25:41.737Z,101729.00
2022-09-04T16:28:33.118Z,101729.38
2022-09-04T16:31:12.481Z,101731.28
2022-09-04T16:33:51.682Z,101730.06
2022-09-04T16:36:26.084Z,101721.94
2022-09-04T16:39:06.421Z,101729.19
2022-09-04T16:41:44.507Z,101731.66
2022-09-04T16:44:31.104Z,101729.84
2022-09-04T16:47:24.454Z,101741.41
2022-09-04T16:50:13.190Z,101740.22
2022-09-04T16:53:12.898Z,101733.00
2022-09-04T16:55:48.029Z,101731.09
2022-09-04T16:58:40.360Z,101741.75
2022-09-04T17:01:16.308Z,101736.81
2022-09-04T17:04:13.869Z,101738.91
2022-09-04T17:07:05.172Z,101738.06
2022-09-04T17:09:49.661Z,101747.66
2022-09-04T17:12:20.110Z,101739.84
2022-09-04T17:15:08.586Z,101743.56
2022-09-04T17:17:41.192Z,101743.09
2022-09-04T17:20:11.095Z,101749.13
2022-09-04T17:28:55.228Z,101752.66
2022-09-04T17:29:18.805Z,101748.16
2022-09-04T17:29:34.894Z,101744.28
2022-09-04T17:34:04.298Z,101742.69
2022-09-04T17:40:35.641Z,101739.63
2022-09-04T17:40:53.289Z,101748.16
2022-09-04T17:41:37.880Z,101748.03
2022-09-04T17:44:31.806Z,101759.56
2022-09-04T17:47:03.763Z,101746.47
2022-09-04T17:49:35.105Z,101748.25
2022-09-04T17:52:09.090Z,101752.81
2022-09-04T17:54:48.889Z,101760.59
2022-09-04T17:57:32.307Z,101756.16
2022-09-04T18:00:06.421Z,101759.47
2022-09-04T18:02:55.494Z,101760.38
2022-09-04T18:05:52.915Z,101764.72
2022-09-04T18:08:35.674Z,101772.50
2022-09-04T18:11:21.595Z,101772.41
2022-09-04T18:14:11.211Z,101773.13
2022-09-04T18:16:39.466Z,101779.97
2022-09-04T18:19:28.205Z,101782.41
2022-09-04T18:22:22.088Z,101784.88
2022-09-04T18:25:16.061Z,101797.28
2022-09-04T18:28:11.631Z,101799.56
2022-09-04T18:37:12.942Z,101805.28
2022-09-04T18:37:15.979Z,101800.41
2022-09-04T18:37:45.759Z,101806.19
2022-09-04T18:40:16.602Z,101813.75
2022-09-04T18:50:24.435Z,101814.06
2022-09-04T18:50:31.189Z,101815.44
2022-09-04T18:50:43.189Z,101815.13
2022-09-04T18:51:44.559Z,101810.22
2022-09-04T18:54:24.791Z,101813.19
2022-09-04T18:57:01.289Z,101816.25
2022-09-04T18:59:43.646Z,101826.22
2022-09-04T19:02:22.657Z,101822.25
2022-09-04T19:04:58.021Z,101828.66
2022-09-04T19:07:51.054Z,101823.69
2022-09-04T19:10:35.367Z,101834.63
2022-09-04T19:13:28.653Z,101834.09
2022-09-04T19:16:08.412Z,101830.09
2022-09-04T19:18:41.634Z,101841.00
2022-09-04T19:21:14.135Z,101841.28
2022-09-04T19:23:49.140Z,101844.97
2022-09-04T19:26:39.605Z,101839.88
2022-09-04T19:29:19.051Z,101835.78
2022-09-04T19:32:00.509Z,101837.97
2022-09-04T19:34:43.138Z,101838.28
2022-09-04T19:38:07.874Z,101839.41
2022-09-04T19:45:53.598Z,101842.13
2022-09-04T19:46:11.433Z,101839.88
2022-09-04T19:46:29.798Z,101849.88
2022-09-04T19:50:13.003Z,101851.03
2022-09-04T19:53:31.249Z,101846.72
2022-09-04T19:55:23.586Z,101850.41
2022-09-04T19:57:52.578Z,101855.88
2022-09-04T20:00:43.174Z,101858.66
2022-09-04T20:03:29.243Z,101859.66
2022-09-04T20:06:21.104Z,101867.66
2022-09-04T20:08:56.421Z,101863.53
2022-09-04T20:11:36.532Z,101864.59
2022-09-04T20:14:14.369Z,101863.91
2022-09-04T20:17:04.776Z,101864.03
2022-09-04T20:19:52.021Z,101868.56
2022-09-04T20:22:45.366Z,101866.09
2022-09-04T20:25:30.843Z,101860.94
2022-09-04T20:28:12.108Z,101861.09
2022-09-04T20:30:43.707Z,101853.38
2022-09-04T20:33:26.289Z,101868.34
2022-09-04T20:36:15.436Z,101869.31
2022-09-04T20:38:54.662Z,101873.72
2022-09-04T20:41:45.904Z,101864.22
2022-09-04T20:44:16.096Z,101868.69
2022-09-04T20:52:49.679Z,101868.81
2022-09-04T20:52:50.732Z,101873.34
2022-09-04T20:53:09.552Z,101869.94
2022-09-04T20:55:46.632Z,101872.66
2022-09-04T21:03:05.179Z,101873.66
2022-09-04T21:03:20.360Z,101874.56
2022-09-04T21:04:56.765Z,101872.19
2022-09-04T21:07:40.733Z,101876.63
2022-09-04T21:10:20.203Z,101882.03
2022-09-04T21:13:14.400Z,101884.72
2022-09-04T21:15:48.198Z,101872.50
2022-09-04T21:18:44.995Z,101872.59
2022-09-04T21:21:50.833Z,101876.28
2022-09-04T21:24:30.317Z,101876.41
2022-09-04T21:27:29.067Z,101884.38
2022-09-04T21:30:15.971Z,101884.38
2022-09-04T21:33:28.098Z,101880.16
2022-09-04T21:36:25.383Z,101884.63
2022-09-04T21:39:11.394Z,101878.59
2022-09-04T21:41:44.743Z,101874.28
2022-09-04T21:44:41.836Z,101880.44
2022-09-04T21:47:31.139Z,101880.44
2022-09-04T21:50:23.018Z,101883.19
2022-09-04T21:52:59.478Z,101885.81
2022-09-04T22:00:44.540Z,101886.75
2022-09-04T22:02:41.533Z,101878.97
2022-09-04T22:02:54.362Z,101878.03
2022-09-04T22:05:34.077Z,101883.22
2022-09-04T22:13:31.370Z,101884.13
2022-09-04T22:13:38.065Z,101885.88
2022-09-04T22:14:43.753Z,101888.50
2022-09-04T22:17:28.001Z,101858.22
2022-09-04T22:20:28.006Z,101895.63
2022-09-04T22:23:24.851Z,101894.81
2022-09-04T22:26:23.943Z,101894.03
2022-09-04T22:28:55.619Z,101894.09
2022-09-04T22:31:24.264Z,101903.75
2022-09-04T22:34:15.476Z,101894.09
2022-09-04T22:37:17.392Z,101885.53
2022-09-04T22:40:04.019Z,101902.16
2022-09-04T22:42:43.486Z,101909.19
2022-09-04T22:45:38.715Z,101895.22
2022-09-04T22:48:12.195Z,101900.56
2022-09-04T22:51:05.325Z,101901.47
2022-09-04T22:53:44.810Z,101900.59
2022-09-04T22:56:25.057Z,101897.97
2022-09-04T22:59:26.723Z,101900.66
2022-09-04T23:02:00.054Z,101894.59
2022-09-04T23:05:17.030Z,101895.53
2022-09-04T23:13:44.593Z,101897.31
2022-09-04T23:14:01.028Z,101902.59
2022-09-04T23:14:05.536Z,101892.06
2022-09-04T23:17:01.512Z,101895.59
2022-09-04T23:23:12.537Z,101900.88
2022-09-04T23:26:50.901Z,101893.00
2022-09-04T23:26:57.284Z,101891.25
2022-09-04T23:29:41.313Z,101894.81
2022-09-04T23:32:26.455Z,101897.47
2022-09-04T23:35:21.573Z,101897.50
2022-09-04T23:38:11.975Z,101881.91
2022-09-04T23:40:43.481Z,101892.34
2022-09-04T23:43:32.219Z,101890.63
2022-09-04T23:46:18.189Z,101894.22
2022-09-04T23:49:15.650Z,101885.50
2022-09-04T23:52:04.169Z,101889.00
2022-09-04T23:54:50.460Z,101881.19
2022-09-04T23:57:36.592Z,101883.84
